Time;durP1;ratioP1;P1;durP2;ratioP2;P2;SDS_P1;SDS_P2;PMS_P1;PMS_P2;Temp;Humidity;BMP_temperature;BMP_pressure;BME280_temperature;BME280_humidity;BME280_pressure;Samples;Min_cycle;Max_cycle;Signal;HPM_P1;HPM_P2
2023/09/27 00:02:16;;;;;;;6.47;2.75;;;;;;;16.03;66.01;100807.16;10380198;28;20065;-59
2023/09/27 00:07:18;;;;;;;4.90;3.00;;;;;;;16.00;66.26;100799.41;10379406;28;20743;-58
2023/09/27 00:12:20;;;;;;;6.25;2.70;;;;;;;15.99;66.05;100805.03;10386549;28;20084;-59
2023/09/27 00:17:22;;;;;;;4.47;3.08;;;;;;;15.95;65.77;100796.47;10385704;28;20072;-60
2023/09/27 00:22:24;;;;;;;6.00;3.35;;;;;;;15.92;66.05;100796.06;10385455;28;20053;-59
2023/09/27 00:27:26;;;;;;;4.43;3.25;;;;;;;15.91;66.06;100797.06;10389235;28;20058;-59
2023/09/27 00:32:27;;;;;;;6.53;4.38;;;;;;;15.87;66.01;100796.63;10391039;28;20045;-60
2023/09/27 00:37:29;;;;;;;6.38;4.75;;;;;;;15.79;66.29;100796.78;10384850;28;20045;-61
2023/09/27 00:42:31;;;;;;;7.65;4.63;;;;;;;15.73;66.87;100792.16;10389276;28;20049;-60
2023/09/27 00:47:33;;;;;;;8.05;4.38;;;;;;;15.70;66.64;100785.25;10381127;28;20053;-60
2023/09/27 00:52:37;;;;;;;6.63;4.18;;;;;;;15.67;66.71;100775.63;10385497;28;20053;-59
2023/09/27 00:57:40;;;;;;;8.90;4.68;;;;;;;15.66;66.66;100778.56;10380140;28;20121;-59
2023/09/27 01:02:42;;;;;;;6.63;5.53;;;;;;;15.35;67.55;100782.50;10380111;28;20050;-60
2023/09/27 01:07:44;;;;;;;9.50;5.55;;;;;;;15.36;67.88;100764.38;10383778;28;20137;-60
2023/09/27 01:12:45;;;;;;;11.02;6.38;;;;;;;15.32;67.89;100779.34;10382695;28;20086;-59
2023/09/27 01:17:54;;;;;;;9.20;6.03;;;;;;;15.07;68.55;100780.63;10383255;28;20395;-63
2023/09/27 01:23:05;;;;;;;8.98;5.75;;;;;;;15.15;68.38;100774.22;10380919;28;20120;-59
2023/09/27 01:28:09;;;;;;;10.13;7.43;;;;;;;15.19;68.34;100780.91;10387953;28;20492;-60
2023/09/27 01:33:11;;;;;;;8.05;5.57;;;;;;;15.19;68.56;100772.78;10380402;28;20053;-59
2023/09/27 01:38:13;;;;;;;8.05;5.68;;;;;;;15.21;68.20;100769.91;10378643;28;20057;-59
2023/09/27 01:43:14;;;;;;;6.70;5.03;;;;;;;15.19;68.05;100772.78;10383986;28;20065;-59
2023/09/27 01:48:16;;;;;;;7.78;5.20;;;;;;;15.13;68.26;100754.63;10384530;28;20152;-61
2023/09/27 01:53:17;;;;;;;6.00;4.53;;;;;;;15.11;68.10;100754.00;10383344;28;20087;-60
2023/09/27 01:58:18;;;;;;;7.68;5.70;;;;;;;15.05;67.94;100757.47;10379686;28;20046;-60
2023/09/27 02:03:20;;;;;;;7.10;5.13;;;;;;;14.91;68.47;100763.78;10379972;28;20062;-61
2023/09/27 02:08:22;;;;;;;8.95;5.28;;;;;;;14.91;68.33;100758.38;10379923;28;20047;-60
2023/09/27 02:13:23;;;;;;;8.25;4.82;;;;;;;14.88;68.10;100762.31;10381953;28;20050;-60
2023/09/27 02:18:25;;;;;;;6.38;5.00;;;;;;;14.83;68.19;100784.56;10381757;28;20046;-59
2023/09/27 02:23:28;;;;;;;11.45;5.25;;;;;;;14.65;68.78;100790.41;10378119;28;20061;-59
2023/09/27 02:28:30;;;;;;;6.22;4.18;;;;;;;14.69;68.50;100782.72;10381435;28;20049;-59
2023/09/27 02:33:31;;;;;;;6.57;4.35;;;;;;;14.66;68.45;100789.38;10384582;28;20053;-60
2023/09/27 02:38:35;;;;;;;7.13;4.20;;;;;;;14.60;68.32;100794.72;10369151;28;20056;-59
2023/09/27 02:43:37;;;;;;;5.60;3.95;;;;;;;14.52;68.53;100811.88;10383067;28;20179;-61
2023/09/27 02:48:38;;;;;;;6.10;4.40;;;;;;;14.46;68.58;100818.88;10381992;28;20057;-60
2023/09/27 02:53:41;;;;;;;8.40;4.03;;;;;;;14.37;68.83;100825.41;10379804;28;20037;-59
2023/09/27 02:58:44;;;;;;;6.00;3.88;;;;;;;14.37;68.80;100814.59;10382454;28;20054;-60
2023/09/27 03:03:46;;;;;;;6.25;4.55;;;;;;;14.39;68.65;100823.38;10383138;28;20049;-60
2023/09/27 03:08:48;;;;;;;5.75;4.22;;;;;;;14.36;68.50;100818.34;10371999;28;20081;-60
2023/09/27 03:13:49;;;;;;;7.78;3.85;;;;;;;14.35;68.61;100823.94;10379653;28;20391;-59
2023/09/27 03:18:51;;;;;;;8.60;4.30;;;;;;;14.31;68.61;100833.47;10376772;28;20053;-60
2023/09/27 03:23:54;;;;;;;5.68;4.18;;;;;;;14.08;69.10;100837.97;10362088;28;20053;-59
2023/09/27 03:28:55;;;;;;;7.72;4.15;;;;;;;14.12;69.02;100840.28;10376813;28;20149;-60
2023/09/27 03:33:57;;;;;;;9.43;4.78;;;;;;;14.02;69.28;100860.34;10374227;28;20128;-59
2023/09/27 03:38:58;;;;;;;9.25;4.45;;;;;;;14.06;69.08;100869.75;10379866;28;20068;-59
2023/09/27 03:44:00;;;;;;;10.23;4.80;;;;;;;14.10;68.93;100872.94;10377309;28;20471;-59
2023/09/27 03:49:02;;;;;;;7.43;4.40;;;;;;;14.08;69.02;100859.59;10382875;28;20053;-59
2023/09/27 03:54:03;;;;;;;7.57;4.22;;;;;;;14.11;68.93;100852.13;10385230;28;20044;-60
2023/09/27 03:59:04;;;;;;;9.00;5.03;;;;;;;14.09;68.88;100831.50;10387774;28;20346;-60
2023/09/27 04:04:06;;;;;;;6.30;4.13;;;;;;;14.04;69.01;100809.63;10389316;28;20073;-59
2023/09/27 04:09:08;;;;;;;6.15;4.50;;;;;;;14.02;69.14;100802.72;10389351;28;20056;-59
2023/09/27 04:14:11;;;;;;;11.27;5.72;;;;;;;14.05;69.28;100815.88;10385868;28;20045;-60
2023/09/27 04:19:13;;;;;;;10.52;6.78;;;;;;;13.94;69.67;100822.59;10383706;28;20045;-60
2023/09/27 04:24:14;;;;;;;11.13;7.22;;;;;;;13.89;69.83;100816.91;10383904;28;20111;-62
2023/09/27 04:29:16;;;;;;;8.50;5.95;;;;;;;13.89;69.95;100796.09;10381994;28;20050;-61
2023/09/27 04:34:17;;;;;;;11.15;7.03;;;;;;;13.72;69.95;100810.81;10385028;28;20107;-62
2023/09/27 04:39:19;;;;;;;11.80;6.80;;;;;;;13.47;71.05;100835.38;10383423;28;20049;-61
2023/09/27 04:44:20;;;;;;;11.73;6.85;;;;;;;13.57;70.77;100823.50;10381079;28;20984;-61
2023/09/27 04:49:22;;;;;;;14.07;6.90;;;;;;;13.69;70.46;100830.13;10383970;28;20112;-61
2023/09/27 04:54:23;;;;;;;10.90;7.10;;;;;;;13.69;70.38;100832.81;10382698;28;20053;-61
2023/09/27 04:59:24;;;;;;;15.77;8.48;;;;;;;13.73;70.45;100828.72;10379566;28;20073;-61
2023/09/27 05:04:27;;;;;;;12.13;6.20;;;;;;;13.78;70.29;100826.28;10381438;28;20053;-61
2023/09/27 05:09:29;;;;;;;9.65;6.55;;;;;;;13.81;70.37;100820.53;10385221;28;20501;-62
2023/09/27 05:14:30;;;;;;;9.77;7.03;;;;;;;13.86;70.35;100817.25;10379117;28;20053;-61
2023/09/27 05:19:31;;;;;;;13.00;8.25;;;;;;;13.86;70.37;100828.06;10383629;28;20081;-68
2023/09/27 05:24:38;;;;;;;19.73;9.23;;;;;;;13.95;70.30;100821.56;10380560;28;20132;-68
2023/09/27 05:29:40;;;;;;;15.45;8.30;;;;;;;14.02;70.21;100830.59;10383025;28;20122;-67
2023/09/27 05:34:41;;;;;;;13.77;7.88;;;;;;;14.03;70.31;100843.06;10380188;28;20153;-62
2023/09/27 05:39:43;;;;;;;14.50;8.13;;;;;;;14.07;70.25;100852.50;10387902;28;20046;-65
2023/09/27 05:44:44;;;;;;;13.68;8.45;;;;;;;14.12;70.05;100867.31;10380270;28;20045;-69
2023/09/27 05:49:46;;;;;;;14.07;8.65;;;;;;;14.13;70.20;100869.84;10380330;28;20140;-62
2023/09/27 05:54:48;;;;;;;14.50;8.35;;;;;;;14.13;70.26;100871.72;10378931;28;20093;-62
2023/09/27 05:59:49;;;;;;;13.70;8.77;;;;;;;14.20;70.32;100878.88;10383440;28;20102;-64
2023/09/27 06:04:51;;;;;;;14.25;8.52;;;;;;;14.23;70.29;100872.25;10386759;28;20368;-64
2023/09/27 06:09:53;;;;;;;13.05;8.35;;;;;;;14.32;70.31;100864.91;10386124;28;20135;-62
2023/09/27 06:14:54;;;;;;;13.38;8.20;;;;;;;14.38;70.10;100864.16;10380317;28;20042;-64
2023/09/27 06:19:56;;;;;;;12.15;8.13;;;;;;;14.44;70.26;100871.50;10380569;28;20046;-62
2023/09/27 06:24:57;;;;;;;10.88;7.07;;;;;;;14.54;70.24;100877.47;10381835;28;20045;-64
2023/09/27 06:29:59;;;;;;;18.52;8.18;;;;;;;14.65;70.19;100876.16;10377232;28;20054;-57
2023/09/27 06:35:03;;;;;;;12.45;8.27;;;;;;;14.72;70.20;100868.97;10384558;28;20045;-57
2023/09/27 06:40:09;;;;;;;13.13;8.02;;;;;;;14.84;70.23;100853.06;10377121;28;20123;-58
2023/09/27 06:45:11;;;;;;;18.92;10.07;;;;;;;14.91;70.11;100853.13;10383028;28;20046;-59
2023/09/27 06:50:14;;;;;;;12.88;8.57;;;;;;;15.02;69.91;100845.31;10376370;28;20056;-59
2023/09/27 06:55:19;;;;;;;14.77;9.02;;;;;;;15.14;70.25;100845.66;10379349;28;20084;-58
2023/09/27 07:00:24;;;;;;;18.98;9.65;;;;;;;15.24;70.54;100848.03;10380311;28;20136;-57
2023/09/27 07:05:26;;;;;;;15.68;8.68;;;;;;;15.43;70.36;100841.13;10379546;28;20054;-58
2023/09/27 07:10:27;;;;;;;16.88;9.23;;;;;;;15.52;70.77;100850.81;10377808;28;20042;-58
2023/09/27 07:15:31;;;;;;;14.43;9.55;;;;;;;15.60;71.07;100852.50;10374046;28;20115;-59
2023/09/27 07:20:34;;;;;;;13.77;8.85;;;;;;;15.82;70.86;100853.34;10382669;28;20049;-57
2023/09/27 07:25:37;;;;;;;14.52;10.48;;;;;;;16.03;70.96;100861.41;10369227;28;20465;-58
2023/09/27 07:30:39;;;;;;;17.30;11.30;;;;;;;16.23;70.61;100858.81;10386835;28;20477;-59
2023/09/27 07:35:42;;;;;;;15.98;10.93;;;;;;;16.48;70.44;100842.00;10389388;28;20045;-59
2023/09/27 07:40:50;;;;;;;15.15;10.80;;;;;;;16.73;70.53;100834.16;10385394;28;20054;-59
2023/09/27 07:45:54;;;;;;;17.80;11.07;;;;;;;16.93;70.30;100838.81;10388758;28;20553;-59
2023/09/27 07:50:56;;;;;;;14.40;10.30;;;;;;;17.06;70.49;100852.41;10389549;28;20050;-59
2023/09/27 07:55:58;;;;;;;17.30;9.77;;;;;;;17.27;70.14;100847.84;10388549;28;20045;-59
2023/09/27 08:00:59;;;;;;;19.58;9.32;;;;;;;17.50;69.88;100856.44;10379982;28;20632;-59
2023/09/27 08:06:01;;;;;;;10.15;6.47;;;;;;;17.69;69.58;100867.50;10389168;28;20514;-58
2023/09/27 08:11:02;;;;;;;8.73;6.75;;;;;;;17.83;69.50;100856.44;10386706;28;20057;-59
2023/09/27 08:16:06;;;;;;;9.57;5.97;;;;;;;18.11;68.96;100854.47;10384431;28;20136;-59
2023/09/27 08:21:07;;;;;;;12.43;6.75;;;;;;;18.16;68.98;100847.34;10390850;28;20046;-59
2023/09/27 08:26:12;;;;;;;9.30;6.78;;;;;;;18.34;68.76;100829.50;10391518;28;20057;-59
2023/09/27 08:31:14;;;;;;;13.10;5.93;;;;;;;18.52;68.36;100850.59;10381819;28;20045;-59
2023/09/27 08:36:15;;;;;;;7.30;5.28;;;;;;;18.73;67.99;100852.16;10390811;28;20128;-59
2023/09/27 08:41:18;;;;;;;8.52;6.10;;;;;;;18.81;67.91;100855.50;10385659;28;20515;-60
2023/09/27 08:46:20;;;;;;;10.05;6.65;;;;;;;18.94;67.61;100842.88;10365146;28;20064;-60
2023/09/27 08:51:22;;;;;;;7.65;5.60;;;;;;;19.22;67.01;100843.28;10386600;28;20060;-59
2023/09/27 08:56:26;;;;;;;6.78;4.95;;;;;;;19.40;66.98;100838.97;10387624;28;20058;-60
2023/09/27 09:01:28;;;;;;;8.30;5.60;;;;;;;19.59;66.45;100835.22;10382604;28;20063;-58
2023/09/27 09:06:30;;;;;;;8.50;5.38;;;;;;;19.77;65.92;100822.72;10382354;28;20707;-57
2023/09/27 09:11:31;;;;;;;7.32;5.07;;;;;;;20.04;65.32;100825.16;10373754;28;20511;-58
2023/09/27 09:16:44;;;;;;;5.65;5.05;;;;;;;20.13;64.72;100819.16;10380713;28;20101;-58
2023/09/27 09:21:55;;;;;;;7.13;5.05;;;;;;;20.38;64.11;100807.34;10382699;28;20053;-58
2023/09/27 09:27:07;;;;;;;6.43;4.93;;;;;;;20.65;63.93;100782.41;10356435;28;20057;-58
2023/09/27 09:32:09;;;;;;;8.82;4.65;;;;;;;20.94;63.06;100772.53;10385159;28;20797;-59
2023/09/27 09:37:29;;;;;;;7.35;4.18;;;;;;;21.16;63.05;100770.88;10379680;28;20046;-57
2023/09/27 09:42:34;;;;;;;4.80;3.80;;;;;;;21.53;61.93;100767.13;10358420;28;20057;-58
2023/09/27 09:47:37;;;;;;;6.82;4.15;;;;;;;21.74;61.23;100768.41;10381578;28;20050;-59
2023/09/27 09:52:39;;;;;;;7.00;4.10;;;;;;;22.15;60.23;100769.28;10384072;28;20057;-57
2023/09/27 09:57:43;;;;;;;6.57;3.80;;;;;;;22.50;59.47;100773.84;10377185;28;20042;-57
2023/09/27 10:03:03;;;;;;;4.80;3.80;;;;;;;22.77;59.14;100763.13;10381390;28;20045;-58
2023/09/27 10:08:06;;;;;;;4.03;3.20;;;;;;;22.97;58.24;100773.59;10382178;28;20136;-60
2023/09/27 10:13:09;;;;;;;7.32;3.60;;;;;;;23.05;58.11;100778.69;10379955;28;20057;-61
2023/09/27 10:18:23;;;;;;;8.00;4.32;;;;;;;23.31;57.00;100784.59;10385710;28;20041;-60
2023/09/27 10:23:25;;;;;;;5.53;3.20;;;;;;;23.55;56.37;100777.81;10384621;28;20054;-58
2023/09/27 10:28:26;;;;;;;3.78;3.03;;;;;;;24.00;55.27;100772.44;10384955;28;20116;-61
2023/09/27 10:33:29;;;;;;;6.70;3.65;;;;;;;24.55;54.15;100760.47;10382733;28;20056;-59
2023/09/27 10:38:42;;;;;;;6.25;2.65;;;;;;;24.93;53.22;100748.44;10378703;28;20064;-61
2023/09/27 10:43:46;;;;;;;6.68;3.92;;;;;;;25.22;52.75;100747.34;10381460;28;20432;-62
2023/09/27 10:49:00;;;;;;;4.50;2.95;;;;;;;25.25;52.07;100744.03;10378180;28;20053;-59
2023/09/27 10:54:08;;;;;;;5.20;2.88;;;;;;;25.26;52.27;100746.53;10380797;28;20057;-59
2023/09/27 10:59:09;;;;;;;6.30;2.55;;;;;;;25.24;51.76;100753.41;10378798;28;20156;-61
2023/09/27 11:04:12;;;;;;;4.57;2.85;;;;;;;25.02;52.37;100745.22;10382995;28;20072;-59
2023/09/27 11:09:16;;;;;;;3.97;2.75;;;;;;;25.07;51.58;100726.00;10382627;28;20164;-59
2023/09/27 11:14:31;;;;;;;2.50;2.30;;;;;;;25.30;51.54;100724.84;10387773;28;20064;-61
2023/09/27 11:19:33;;;;;;;5.50;3.13;;;;;;;25.59;50.78;100730.75;10386041;28;20066;-60
2023/09/27 11:24:38;;;;;;;4.72;2.65;;;;;;;26.12;49.14;100706.78;10375217;28;20045;-57
2023/09/27 11:29:40;;;;;;;4.77;2.57;;;;;;;26.41;48.54;100691.69;10382833;28;20049;-57
2023/09/27 11:34:42;;;;;;;4.22;2.80;;;;;;;26.53;48.40;100689.50;10380239;28;20050;-57
2023/09/27 11:39:51;;;;;;;7.72;2.90;;;;;;;26.73;47.35;100685.94;10382064;28;20054;-57
2023/09/27 11:45:09;;;;;;;4.20;2.10;;;;;;;26.95;47.21;100677.38;10375534;28;20057;-57
2023/09/27 11:50:11;;;;;;;5.93;2.53;;;;;;;27.33;46.50;100674.31;10378254;28;20080;-59
2023/09/27 11:55:16;;;;;;;4.32;2.83;;;;;;;27.75;45.28;100659.25;10383177;28;20096;-58
2023/09/27 12:00:19;;;;;;;4.90;2.60;;;;;;;28.25;44.04;100646.28;10380171;28;20050;-57
2023/09/27 12:05:20;;;;;;;4.32;2.33;;;;;;;29.10;42.33;100645.00;10361586;28;20098;-59
2023/09/27 12:10:22;;;;;;;7.75;2.40;;;;;;;29.44;41.75;100644.09;10387748;28;20053;-56
2023/09/27 12:15:24;;;;;;;5.43;2.60;;;;;;;29.70;41.18;100622.44;10387823;28;20038;-56
2023/09/27 12:20:27;;;;;;;6.00;2.50;;;;;;;29.88;40.86;100620.84;10363533;28;20058;-57
2023/09/27 12:25:42;;;;;;;3.30;2.20;;;;;;;29.77;40.61;100609.06;10384030;28;20401;-58
2023/09/27 12:30:44;;;;;;;6.30;3.03;;;;;;;29.73;40.97;100596.91;10387675;28;20050;-60
2023/09/27 12:35:46;;;;;;;3.95;2.28;;;;;;;29.56;40.75;100591.88;10383552;28;20092;-64
2023/09/27 12:40:48;;;;;;;2.72;2.45;;;;;;;29.52;40.31;100588.00;10385225;28;20058;-62
2023/09/27 12:45:50;;;;;;;3.65;2.03;;;;;;;29.50;40.28;100572.81;10384682;28;20044;-63
2023/09/27 12:50:51;;;;;;;4.18;1.80;;;;;;;29.49;40.73;100565.66;10385784;28;20057;-59
2023/09/27 12:55:53;;;;;;;3.35;2.40;;;;;;;29.31;40.94;100554.25;10387577;28;20444;-60
2023/09/27 13:00:54;;;;;;;2.50;2.28;;;;;;;29.37;40.46;100552.22;10389530;28;20091;-59
2023/09/27 13:05:56;;;;;;;4.78;2.35;;;;;;;29.41;40.96;100548.56;10385680;28;20147;-58
2023/09/27 13:10:57;;;;;;;2.78;1.67;;;;;;;29.46;40.06;100547.66;10384921;28;20084;-58
2023/09/27 13:15:59;;;;;;;2.50;1.50;;;;;;;29.19;40.71;100545.53;10367711;28;20684;-58
2023/09/27 13:21:00;;;;;;;1.90;1.73;;;;;;;29.19;39.99;100543.59;10356456;28;20052;-58
2023/09/27 13:26:02;;;;;;;3.33;1.70;;;;;;;29.35;39.91;100544.22;10381881;28;20081;-57
2023/09/27 13:31:03;;;;;;;2.67;2.00;;;;;;;29.46;38.94;100520.81;10381451;28;20053;-58
2023/09/27 13:36:05;;;;;;;2.28;1.90;;;;;;;29.26;39.84;100515.53;10373598;28;20138;-58
2023/09/27 13:41:06;;;;;;;5.45;2.58;;;;;;;29.78;39.55;100510.09;10372202;28;20140;-56
2023/09/27 13:46:08;;;;;;;2.80;1.88;;;;;;;30.18;38.47;100500.28;10388548;28;20041;-56
2023/09/27 13:51:10;;;;;;;4.78;1.80;;;;;;;30.44;38.50;100497.09;10377097;28;20674;-57
2023/09/27 13:56:11;;;;;;;4.07;1.65;;;;;;;30.99;37.56;100496.31;10391704;28;20050;-56
2023/09/27 14:01:13;;;;;;;2.53;1.77;;;;;;;32.36;35.31;100494.19;10385378;28;20054;-56
2023/09/27 14:06:18;;;;;;;2.80;1.60;;;;;;;33.64;33.47;100478.53;10389810;28;20060;-57
2023/09/27 14:11:20;;;;;;;;;;;;;;;34.89;33.21;100474.75;10382897;28;20053;-57
2023/09/27 14:16:22;;;;;;;1.42;0.98;;;;;;;34.92;31.46;100468.50;10380725;28;19929;-57
2023/09/27 14:21:23;;;;;;;3.17;1.42;;;;;;;34.82;31.44;100468.09;10384347;28;20076;-57
2023/09/27 14:26:25;;;;;;;1.70;1.10;;;;;;;34.43;31.22;100462.47;10391690;28;20057;-57
2023/09/27 14:31:28;;;;;;;2.65;1.20;;;;;;;33.29;32.55;100447.84;10387793;28;20065;-57
2023/09/27 14:36:30;;;;;;;1.65;1.00;;;;;;;32.65;33.11;100459.50;10356547;28;20057;-57
2023/09/27 14:41:32;;;;;;;3.88;1.52;;;;;;;32.93;32.37;100457.28;10391383;28;20049;-56
2023/09/27 14:46:34;;;;;;;2.75;1.30;;;;;;;32.79;32.45;100449.03;10389046;28;20064;-57
2023/09/27 14:51:35;;;;;;;2.28;1.10;;;;;;;32.78;32.55;100435.44;10359585;28;20156;-58
2023/09/27 14:56:37;;;;;;;2.55;1.25;;;;;;;32.91;32.85;100431.72;10386605;28;20056;-58
2023/09/27 15:01:39;;;;;;;2.65;1.42;;;;;;;32.52;33.11;100427.00;10376289;28;20045;-58
2023/09/27 15:06:40;;;;;;;2.58;1.38;;;;;;;31.90;33.29;100425.03;10370460;28;20049;-58
2023/09/27 15:11:42;;;;;;;1.42;0.70;;;;;;;31.79;32.86;100418.91;10377834;28;20067;-59
2023/09/27 15:16:43;;;;;;;1.23;1.00;;;;;;;31.96;32.87;100419.00;10380616;28;20053;-58
2023/09/27 15:21:47;;;;;;;1.88;0.70;;;;;;;31.81;32.65;100419.41;10374986;28;20104;-58
2023/09/27 15:26:48;;;;;;;1.15;1.00;;;;;;;31.76;32.14;100409.25;10377923;28;20546;-58
2023/09/27 15:31:50;;;;;;;3.47;0.80;;;;;;;31.69;32.64;100413.59;10381451;28;20045;-59
2023/09/27 15:36:51;;;;;;;1.02;0.70;;;;;;;31.60;32.61;100405.22;10377101;28;20080;-58
2023/09/27 15:41:53;;;;;;;4.00;0.98;;;;;;;31.48;32.74;100399.38;10377631;28;20057;-58
2023/09/27 15:46:54;;;;;;;3.38;0.90;;;;;;;31.31;32.96;100394.50;10389284;28;20489;-59
2023/09/27 15:51:56;;;;;;;1.00;0.80;;;;;;;30.94;33.68;100394.50;10350444;28;20054;-59
2023/09/27 15:56:57;;;;;;;2.17;1.20;;;;;;;30.57;33.62;100393.63;10361209;28;20073;-59
2023/09/27 16:01:59;;;;;;;3.67;1.15;;;;;;;30.13;34.32;100395.00;10393442;28;20100;-58
2023/09/27 16:07:01;;;;;;;1.08;0.88;;;;;;;29.72;34.92;100384.66;10360725;28;20571;-58
2023/09/27 16:12:03;;;;;;;4.18;1.00;;;;;;;29.34;35.29;100393.00;10385795;28;20060;-58
2023/09/27 16:17:04;;;;;;;4.63;1.63;;;;;;;28.96;35.49;100386.63;10356600;28;20145;-58
2023/09/27 16:22:06;;;;;;;4.05;1.38;;;;;;;28.62;36.22;100385.69;10355883;28;20057;-58
2023/09/27 16:27:07;;;;;;;2.63;1.08;;;;;;;28.25;37.34;100383.63;10352783;28;20073;-58
2023/09/27 16:32:09;;;;;;;2.90;1.98;;;;;;;27.93;37.75;100392.53;10351493;28;20058;-58
2023/09/27 16:37:12;;;;;;;2.72;1.85;;;;;;;27.61;38.38;100386.41;10346601;28;20671;-57
2023/09/27 16:42:13;;;;;;;5.22;1.83;;;;;;;27.30;39.11;100388.59;10346277;28;20046;-59
2023/09/27 16:47:15;;;;;;;2.45;1.30;;;;;;;26.97;40.03;100398.44;10387407;28;20056;-58
2023/09/27 16:52:16;;;;;;;3.33;1.67;;;;;;;26.58;40.58;100397.25;10393051;28;20057;-58
2023/09/27 16:57:18;;;;;;;4.05;1.40;;;;;;;26.28;41.88;100409.16;10387518;28;20054;-58
2023/09/27 17:02:21;;;;;;;4.40;1.50;;;;;;;25.90;42.82;100417.75;10365585;28;20054;-58
2023/09/27 17:07:23;;;;;;;3.40;2.00;;;;;;;25.59;43.66;100419.66;10382093;28;20049;-57
2023/09/27 17:12:25;;;;;;;2.00;1.50;;;;;;;25.34;43.81;100417.72;10382040;28;20045;-58
2023/09/27 17:17:26;;;;;;;3.22;1.60;;;;;;;25.04;44.43;100413.78;10382784;28;20045;-58
2023/09/27 17:22:27;;;;;;;4.22;1.80;;;;;;;24.76;45.81;100408.72;10383920;28;20050;-60
2023/09/27 17:27:29;;;;;;;8.00;2.17;;;;;;;24.49;46.88;100405.00;10383190;28;20504;-57
2023/09/27 17:32:31;;;;;;;5.63;2.10;;;;;;;24.22;47.49;100409.78;10379426;28;20489;-58
2023/09/27 17:37:32;;;;;;;6.40;2.40;;;;;;;23.82;48.65;100425.72;10378148;28;20140;-57
2023/09/27 17:42:35;;;;;;;3.65;1.75;;;;;;;23.48;49.20;100420.47;10380233;28;20344;-59
2023/09/27 17:47:36;;;;;;;2.83;1.95;;;;;;;23.26;49.73;100422.41;10365043;28;20433;-59
2023/09/27 17:52:38;;;;;;;3.80;1.98;;;;;;;23.02;50.21;100421.84;10380769;28;20056;-59
2023/09/27 17:57:40;;;;;;;3.92;1.67;;;;;;;22.72;50.71;100421.22;10381574;28;20081;-59
2023/09/27 18:02:41;;;;;;;6.63;3.72;;;;;;;22.48;51.65;100420.66;10370901;28;20048;-59
2023/09/27 18:07:44;;;;;;;5.40;2.20;;;;;;;22.30;52.05;100408.09;10373691;28;20477;-58
2023/09/27 18:12:45;;;;;;;2.53;1.98;;;;;;;22.15;52.52;100413.31;10388734;28;20052;-59
2023/09/27 18:17:46;;;;;;;5.30;2.00;;;;;;;22.01;52.79;100406.53;10382217;28;20072;-58
2023/09/27 18:22:48;;;;;;;6.90;2.85;;;;;;;21.86;53.27;100409.84;10377964;28;20093;-61
2023/09/27 18:27:50;;;;;;;5.47;2.78;;;;;;;21.68;53.80;100402.72;10384500;28;20050;-61
2023/09/27 18:32:51;;;;;;;4.70;3.08;;;;;;;21.43;54.57;100414.03;10374912;28;20058;-59
2023/09/27 18:37:53;;;;;;;4.90;3.00;;;;;;;21.20;55.30;100407.59;10383062;28;20060;-60
2023/09/27 18:42:54;;;;;;;4.20;2.40;;;;;;;20.97;55.47;100405.78;10381471;28;20129;-62
2023/09/27 18:47:55;;;;;;;5.25;2.88;;;;;;;20.74;56.67;100401.25;10384975;28;20046;-60
2023/09/27 18:52:59;;;;;;;5.95;2.78;;;;;;;20.63;56.79;100411.13;10385065;28;20056;-61
2023/09/27 18:58:00;;;;;;;4.20;3.17;;;;;;;20.60;56.80;100406.16;10381192;28;20500;-58
2023/09/27 19:03:02;;;;;;;4.75;3.25;;;;;;;20.52;57.22;100404.59;10381962;28;20065;-60
2023/09/27 19:08:04;;;;;;;5.45;3.50;;;;;;;20.44;57.08;100415.03;10378101;28;20049;-59
2023/09/27 19:13:05;;;;;;;3.88;2.50;;;;;;;20.35;57.62;100411.88;10383791;28;20076;-61
2023/09/27 19:18:07;;;;;;;5.80;3.22;;;;;;;20.27;57.40;100404.03;10376691;28;20096;-59
2023/09/27 19:23:09;;;;;;;3.85;3.03;;;;;;;20.16;58.00;100414.75;10379135;28;20146;-63
2023/09/27 19:28:10;;;;;;;4.80;3.17;;;;;;;20.03;57.96;100409.50;10374612;28;20148;-60
2023/09/27 19:33:12;;;;;;;3.88;3.17;;;;;;;19.94;58.38;100409.00;10377563;28;20049;-60
2023/09/27 19:38:13;;;;;;;5.88;3.72;;;;;;;19.78;58.99;100415.19;10382561;28;20057;-59
2023/09/27 19:43:15;;;;;;;6.63;3.40;;;;;;;19.53;59.52;100434.41;10384759;28;20049;-58
2023/09/27 19:48:16;;;;;;;7.53;3.90;;;;;;;19.42;59.60;100425.16;10375844;28;20046;-59
2023/09/27 19:53:18;;;;;;;4.68;3.10;;;;;;;19.34;59.98;100420.84;10382649;28;20060;-59
2023/09/27 19:58:19;;;;;;;5.75;3.20;;;;;;;19.27;60.00;100416.56;10385219;28;20429;-59
2023/09/27 20:03:21;;;;;;;5.65;3.10;;;;;;;19.15;60.41;100424.69;10373754;28;20049;-58
2023/09/27 20:08:24;;;;;;;5.18;3.42;;;;;;;19.03;60.44;100420.03;10386042;28;20049;-60
2023/09/27 20:13:26;;;;;;;7.57;3.47;;;;;;;18.87;60.97;100430.72;10363915;28;20146;-59
2023/09/27 20:18:27;;;;;;;6.40;3.38;;;;;;;18.77;61.38;100429.34;10327712;28;20046;-58
2023/09/27 20:23:29;;;;;;;5.43;3.63;;;;;;;18.76;61.33;100424.97;10334898;28;20107;-59
2023/09/27 20:28:30;;;;;;;4.50;3.42;;;;;;;18.73;61.23;100428.13;10353786;28;20057;-58
2023/09/27 20:33:32;;;;;;;9.50;3.85;;;;;;;18.66;61.52;100435.56;10357709;28;20143;-59
2023/09/27 20:38:34;;;;;;;6.65;3.50;;;;;;;18.58;61.71;100430.41;10332185;28;20137;-59
2023/09/27 20:43:35;;;;;;;5.93;4.30;;;;;;;18.50;61.95;100430.72;10392364;28;20392;-59
2023/09/27 20:48:37;;;;;;;6.90;3.30;;;;;;;18.41;61.97;100416.56;10391951;28;20518;-57
2023/09/27 20:53:38;;;;;;;6.05;3.60;;;;;;;18.27;62.50;100410.44;10337296;28;20073;-58
2023/09/27 20:58:40;;;;;;;4.72;3.88;;;;;;;18.17;62.89;100399.25;10344883;28;20130;-57
2023/09/27 21:03:43;;;;;;;8.02;4.00;;;;;;;18.12;62.80;100396.34;10352194;28;20128;-58
2023/09/27 21:08:44;;;;;;;7.88;3.20;;;;;;;18.06;62.93;100395.38;10350278;28;20493;-58
2023/09/27 21:13:46;;;;;;;5.07;3.63;;;;;;;17.99;63.02;100390.00;10351657;28;20061;-58
2023/09/27 21:18:47;;;;;;;5.07;3.60;;;;;;;17.92;63.32;100393.84;10385686;28;20456;-58
2023/09/27 21:23:49;;;;;;;7.32;4.43;;;;;;;17.69;63.91;100384.38;10387544;28;20125;-56
2023/09/27 21:28:51;;;;;;;5.32;4.03;;;;;;;17.68;63.72;100380.00;10383359;28;20144;-56
2023/09/27 21:33:52;;;;;;;6.32;4.18;;;;;;;17.64;63.86;100385.03;10387037;28;20045;-56
2023/09/27 21:38:54;;;;;;;5.50;4.28;;;;;;;17.53;64.31;100383.03;10382170;28;20107;-56
2023/09/27 21:43:55;;;;;;;6.20;4.65;;;;;;;17.51;64.57;100385.13;10384048;28;20053;-56
2023/09/27 21:48:57;;;;;;;6.03;4.00;;;;;;;17.48;64.33;100385.59;10385950;28;20080;-56
2023/09/27 21:53:58;;;;;;;5.13;3.90;;;;;;;17.44;64.46;100374.31;10350143;28;20530;-56
2023/09/27 21:59:00;;;;;;;3.78;3.30;;;;;;;17.40;64.67;100378.53;10379240;28;20491;-56
2023/09/27 22:04:02;;;;;;;6.10;3.65;;;;;;;17.30;64.78;100380.91;10380804;28;20041;-56
2023/09/27 22:09:04;;;;;;;6.57;3.85;;;;;;;17.25;64.92;100373.41;10386411;28;20049;-56
2023/09/27 22:14:06;;;;;;;6.47;4.03;;;;;;;17.21;65.03;100361.31;10384187;28;20092;-56
2023/09/27 22:19:11;;;;;;;8.15;4.03;;;;;;;17.19;65.23;100362.59;10380292;28;20042;-56
2023/09/27 22:24:15;;;;;;;8.52;4.15;;;;;;;17.14;65.18;100359.69;10384975;28;20779;-57
2023/09/27 22:29:17;;;;;;;12.57;4.82;;;;;;;17.10;65.35;100369.34;10387149;28;20042;-56
2023/09/27 22:34:24;;;;;;;6.38;4.70;;;;;;;17.03;65.58;100378.34;10374580;28;20056;-57
2023/09/27 22:39:26;;;;;;;;;;;;;;;16.87;65.54;100373.44;10364981;28;20076;-56
2023/09/27 22:44:32;;;;;;;9.25;5.05;;;;;;;16.94;65.68;100376.09;10368868;28;19928;-56
2023/09/27 22:49:34;;;;;;;7.78;4.07;;;;;;;16.92;65.87;100376.31;10380119;28;20057;-56
2023/09/27 22:54:38;;;;;;;7.35;3.85;;;;;;;16.89;66.06;100371.34;10383911;28;20132;-56
2023/09/27 22:59:39;;;;;;;5.85;4.50;;;;;;;16.88;66.04;100368.84;10383372;28;20132;-56
2023/09/27 23:04:41;;;;;;;7.68;4.68;;;;;;;16.85;66.36;100361.97;10383062;28;20110;-53
2023/09/27 23:09:42;;;;;;;6.20;4.70;;;;;;;16.83;66.33;100367.59;10382956;28;20049;-56